Terminal Aerodrome Forecast
Issued by NWS Denver/Boulder, CO

Home | Current Version | Previous Version | Text Only | Print | Product List | Glossary On
Versions: 1 2 3 4 5 6 7 8 9 10 11 12 13 14 15 16 17 18 19 20 21 22 23 24 25 26 27 28 29 30 31 32 33 34 35 36 37 38 39 40 41 42 43 44 45 46 47 48 49 50
000
FTUS45 KBOU 210201 AAB
TAFDEN
TAF AMD
KDEN 210201Z 2102/2206 21016KT P6SM SCT110 BKN150 BKN220
     FM210400 20011KT P6SM FEW110 SCT220
     FM211400 28005KT P6SM FEW140
     FM211600 01008KT P6SM FEW080 SCT140
     FM212200 34010KT P6SM VCTS SCT080CB BKN120
     FM220300 20010KT P6SM FEW080 BKN120 BKN200=

USA.gov is the U.S. government's official web portal to all federal, state and local government web resources and services.